sensor_id;sensor_type;location;lat;lon;timestamp;P1;durP1;ratioP1;P2;durP2;ratioP2
39970;SDS011;35425;51.142;17.178;2022-08-01T00:01:57;0.50;;;0.30;;
39970;SDS011;35425;51.142;17.178;2022-08-01T00:04:23;0.30;;;0.30;;
39970;SDS011;35425;51.142;17.178;2022-08-01T00:06:50;0.40;;;0.30;;
39970;SDS011;35425;51.142;17.178;2022-08-01T00:09:16;0.35;;;0.30;;
39970;SDS011;35425;51.142;17.178;2022-08-01T00:11:49;0.30;;;0.30;;
39970;SDS011;35425;51.142;17.178;2022-08-01T00:14:34;0.25;;;0.25;;
39970;SDS011;35425;51.142;17.178;2022-08-01T00:17:01;0.25;;;0.25;;
39970;SDS011;35425;51.142;17.178;2022-08-01T00:19:32;0.47;;;0.40;;
39970;SDS011;35425;51.142;17.178;2022-08-01T00:21:59;0.30;;;0.30;;
39970;SDS011;35425;51.142;17.178;2022-08-01T00:24:26;0.30;;;0.30;;
39970;SDS011;35425;51.142;17.178;2022-08-01T00:26:53;0.60;;;0.40;;
39970;SDS011;35425;51.142;17.178;2022-08-01T00:29:19;0.40;;;0.30;;
39970;SDS011;35425;51.142;17.178;2022-08-01T00:32:06;0.30;;;0.30;;
39970;SDS011;35425;51.142;17.178;2022-08-01T00:34:33;0.40;;;0.40;;
39970;SDS011;35425;51.142;17.178;2022-08-01T00:37:00;0.20;;;0.20;;
39970;SDS011;35425;51.142;17.178;2022-08-01T00:39:26;0.52;;;0.40;;
39970;SDS011;35425;51.142;17.178;2022-08-01T00:41:53;0.30;;;0.30;;
39970;SDS011;35425;51.142;17.178;2022-08-01T00:46:51;0.40;;;0.30;;
39970;SDS011;35425;51.142;17.178;2022-08-01T00:49:18;0.20;;;0.20;;
39970;SDS011;35425;51.142;17.178;2022-08-01T00:51:44;0.73;;;0.40;;
39970;SDS011;35425;51.142;17.178;2022-08-01T00:54:11;0.68;;;0.47;;
39970;SDS011;35425;51.142;17.178;2022-08-01T00:56:41;0.68;;;0.25;;
39970;SDS011;35425;51.142;17.178;2022-08-01T00:59:08;0.32;;;0.30;;
39970;SDS011;35425;51.142;17.178;2022-08-01T01:01:35;0.30;;;0.30;;
39970;SDS011;35425;51.142;17.178;2022-08-01T01:04:05;0.30;;;0.20;;
39970;SDS011;35425;51.142;17.178;2022-08-01T01:12:05;0.40;;;0.40;;
39970;SDS011;35425;51.142;17.178;2022-08-01T01:14:33;0.30;;;0.30;;
39970;SDS011;35425;51.142;17.178;2022-08-01T01:17:03;0.30;;;0.30;;
39970;SDS011;35425;51.142;17.178;2022-08-01T01:19:33;0.73;;;0.20;;
39970;SDS011;35425;51.142;17.178;2022-08-01T01:22:45;0.30;;;0.30;;
39970;SDS011;35425;51.142;17.178;2022-08-01T01:27:27;0.40;;;0.30;;
39970;SDS011;35425;51.142;17.178;2022-08-01T01:29:55;0.30;;;0.30;;
39970;SDS011;35425;51.142;17.178;2022-08-01T01:32:33;0.40;;;0.40;;
39970;SDS011;35425;51.142;17.178;2022-08-01T01:35:09;0.55;;;0.35;;
39970;SDS011;35425;51.142;17.178;2022-08-01T01:37:37;0.30;;;0.30;;
39970;SDS011;35425;51.142;17.178;2022-08-01T01:40:04;0.65;;;0.20;;
39970;SDS011;35425;51.142;17.178;2022-08-01T01:42:31;0.30;;;0.30;;
39970;SDS011;35425;51.142;17.178;2022-08-01T01:44:58;0.35;;;0.30;;
39970;SDS011;35425;51.142;17.178;2022-08-01T01:47:26;0.65;;;0.30;;
39970;SDS011;35425;51.142;17.178;2022-08-01T01:49:53;0.40;;;0.28;;
39970;SDS011;35425;51.142;17.178;2022-08-01T01:52:21;0.35;;;0.30;;
39970;SDS011;35425;51.142;17.178;2022-08-01T01:54:49;0.30;;;0.30;;
39970;SDS011;35425;51.142;17.178;2022-08-01T01:57:16;0.32;;;0.30;;
39970;SDS011;35425;51.142;17.178;2022-08-01T01:59:44;1.45;;;0.40;;
39970;SDS011;35425;51.142;17.178;2022-08-01T02:02:11;0.50;;;0.40;;
39970;SDS011;35425;51.142;17.178;2022-08-01T02:04:40;0.35;;;0.32;;
39970;SDS011;35425;51.142;17.178;2022-08-01T02:07:07;0.57;;;0.30;;
39970;SDS011;35425;51.142;17.178;2022-08-01T02:09:35;0.30;;;0.30;;
39970;SDS011;35425;51.142;17.178;2022-08-01T02:12:02;0.30;;;0.30;;
39970;SDS011;35425;51.142;17.178;2022-08-01T02:14:34;0.43;;;0.30;;
39970;SDS011;35425;51.142;17.178;2022-08-01T02:17:04;0.55;;;0.30;;
39970;SDS011;35425;51.142;17.178;2022-08-01T02:19:30;0.30;;;0.28;;
39970;SDS011;35425;51.142;17.178;2022-08-01T02:24:50;0.40;;;0.38;;
39970;SDS011;35425;51.142;17.178;2022-08-01T02:27:21;0.30;;;0.30;;
39970;SDS011;35425;51.142;17.178;2022-08-01T02:29:56;0.22;;;0.22;;
39970;SDS011;35425;51.142;17.178;2022-08-01T02:32:32;0.20;;;0.20;;
39970;SDS011;35425;51.142;17.178;2022-08-01T02:35:00;0.30;;;0.30;;
39970;SDS011;35425;51.142;17.178;2022-08-01T02:37:27;0.40;;;0.40;;
39970;SDS011;35425;51.142;17.178;2022-08-01T02:39:54;0.30;;;0.30;;
39970;SDS011;35425;51.142;17.178;2022-08-01T02:42:23;0.30;;;0.30;;
39970;SDS011;35425;51.142;17.178;2022-08-01T02:44:51;0.30;;;0.30;;
39970;SDS011;35425;51.142;17.178;2022-08-01T02:47:19;0.30;;;0.20;;
39970;SDS011;35425;51.142;17.178;2022-08-01T02:49:46;0.30;;;0.30;;
39970;SDS011;35425;51.142;17.178;2022-08-01T02:52:19;0.40;;;0.40;;
39970;SDS011;35425;51.142;17.178;2022-08-01T02:54:48;0.35;;;0.30;;
39970;SDS011;35425;51.142;17.178;2022-08-01T02:57:15;0.40;;;0.40;;
39970;SDS011;35425;51.142;17.178;2022-08-01T02:59:45;0.45;;;0.30;;
39970;SDS011;35425;51.142;17.178;2022-08-01T03:02:12;0.30;;;0.30;;
39970;SDS011;35425;51.142;17.178;2022-08-01T03:04:40;0.40;;;0.30;;
39970;SDS011;35425;51.142;17.178;2022-08-01T03:07:08;0.30;;;0.30;;
39970;SDS011;35425;51.142;17.178;2022-08-01T03:09:36;0.30;;;0.28;;
39970;SDS011;35425;51.142;17.178;2022-08-01T03:12:04;0.30;;;0.30;;
39970;SDS011;35425;51.142;17.178;2022-08-01T03:14:33;0.43;;;0.32;;
39970;SDS011;35425;51.142;17.178;2022-08-01T03:17:01;0.32;;;0.30;;
39970;SDS011;35425;51.142;17.178;2022-08-01T03:19:28;0.50;;;0.40;;
39970;SDS011;35425;51.142;17.178;2022-08-01T03:21:58;0.45;;;0.30;;
39970;SDS011;35425;51.142;17.178;2022-08-01T03:24:26;0.25;;;0.20;;
39970;SDS011;35425;51.142;17.178;2022-08-01T03:26:53;0.40;;;0.30;;
39970;SDS011;35425;51.142;17.178;2022-08-01T03:29:22;0.30;;;0.30;;
39970;SDS011;35425;51.142;17.178;2022-08-01T03:31:50;0.20;;;0.20;;
39970;SDS011;35425;51.142;17.178;2022-08-01T03:34:17;0.45;;;0.30;;
39970;SDS011;35425;51.142;17.178;2022-08-01T03:36:48;0.35;;;0.30;;
39970;SDS011;35425;51.142;17.178;2022-08-01T03:39:16;0.40;;;0.40;;
39970;SDS011;35425;51.142;17.178;2022-08-01T03:41:46;0.32;;;0.30;;
39970;SDS011;35425;51.142;17.178;2022-08-01T03:44:13;0.20;;;0.20;;
39970;SDS011;35425;51.142;17.178;2022-08-01T03:46:46;0.20;;;0.20;;
39970;SDS011;35425;51.142;17.178;2022-08-01T03:49:23;0.20;;;0.20;;
39970;SDS011;35425;51.142;17.178;2022-08-01T03:51:51;0.30;;;0.30;;
39970;SDS011;35425;51.142;17.178;2022-08-01T03:54:23;0.30;;;0.30;;
39970;SDS011;35425;51.142;17.178;2022-08-01T03:56:54;0.30;;;0.30;;
39970;SDS011;35425;51.142;17.178;2022-08-01T03:59:20;0.43;;;0.32;;
39970;SDS011;35425;51.142;17.178;2022-08-01T04:01:50;0.30;;;0.30;;
39970;SDS011;35425;51.142;17.178;2022-08-01T04:04:17;0.28;;;0.28;;
39970;SDS011;35425;51.142;17.178;2022-08-01T04:06:44;0.40;;;0.30;;
39970;SDS011;35425;51.142;17.178;2022-08-01T04:09:11;0.30;;;0.20;;
39970;SDS011;35425;51.142;17.178;2022-08-01T04:11:41;0.30;;;0.30;;
39970;SDS011;35425;51.142;17.178;2022-08-01T04:14:07;0.22;;;0.22;;
39970;SDS011;35425;51.142;17.178;2022-08-01T04:16:34;0.65;;;0.20;;
39970;SDS011;35425;51.142;17.178;2022-08-01T04:19:01;0.28;;;0.20;;
39970;SDS011;35425;51.142;17.178;2022-08-01T04:21:28;0.30;;;0.30;;
39970;SDS011;35425;51.142;17.178;2022-08-01T04:23:56;0.20;;;0.20;;
39970;SDS011;35425;51.142;17.178;2022-08-01T04:26:24;0.30;;;0.30;;
39970;SDS011;35425;51.142;17.178;2022-08-01T04:28:51;0.30;;;0.25;;
39970;SDS011;35425;51.142;17.178;2022-08-01T04:31:18;0.20;;;0.20;;
39970;SDS011;35425;51.142;17.178;2022-08-01T04:33:46;0.28;;;0.28;;
39970;SDS011;35425;51.142;17.178;2022-08-01T04:36:14;0.30;;;0.20;;
39970;SDS011;35425;51.142;17.178;2022-08-01T04:38:42;0.20;;;0.20;;
39970;SDS011;35425;51.142;17.178;2022-08-01T04:41:09;0.30;;;0.30;;
39970;SDS011;35425;51.142;17.178;2022-08-01T04:43:37;0.20;;;0.20;;
39970;SDS011;35425;51.142;17.178;2022-08-01T04:46:05;0.40;;;0.30;;
39970;SDS011;35425;51.142;17.178;2022-08-01T04:48:32;0.20;;;0.20;;
39970;SDS011;35425;51.142;17.178;2022-08-01T04:51:00;0.38;;;0.30;;
39970;SDS011;35425;51.142;17.178;2022-08-01T04:53:26;0.30;;;0.30;;
39970;SDS011;35425;51.142;17.178;2022-08-01T04:55:54;0.95;;;0.28;;
39970;SDS011;35425;51.142;17.178;2022-08-01T04:58:20;0.77;;;0.30;;
39970;SDS011;35425;51.142;17.178;2022-08-01T05:00:47;0.35;;;0.30;;
39970;SDS011;35425;51.142;17.178;2022-08-01T05:03:14;0.30;;;0.25;;
39970;SDS011;35425;51.142;17.178;2022-08-01T05:05:40;0.35;;;0.30;;
39970;SDS011;35425;51.142;17.178;2022-08-01T05:08:07;0.22;;;0.20;;
39970;SDS011;35425;51.142;17.178;2022-08-01T05:10:33;0.50;;;0.30;;
39970;SDS011;35425;51.142;17.178;2022-08-01T05:13:00;0.30;;;0.30;;
39970;SDS011;35425;51.142;17.178;2022-08-01T05:15:26;0.30;;;0.30;;
39970;SDS011;35425;51.142;17.178;2022-08-01T05:17:54;0.40;;;0.38;;
39970;SDS011;35425;51.142;17.178;2022-08-01T05:20:24;0.40;;;0.20;;
39970;SDS011;35425;51.142;17.178;2022-08-01T05:22:54;0.73;;;0.30;;
39970;SDS011;35425;51.142;17.178;2022-08-01T05:25:22;0.20;;;0.20;;
39970;SDS011;35425;51.142;17.178;2022-08-01T05:28:10;0.60;;;0.40;;
39970;SDS011;35425;51.142;17.178;2022-08-01T05:30:42;0.43;;;0.40;;
39970;SDS011;35425;51.142;17.178;2022-08-01T05:33:09;0.80;;;0.50;;
39970;SDS011;35425;51.142;17.178;2022-08-01T05:35:35;0.40;;;0.38;;
39970;SDS011;35425;51.142;17.178;2022-08-01T05:38:14;0.57;;;0.38;;
39970;SDS011;35425;51.142;17.178;2022-08-01T05:40:40;0.65;;;0.40;;
39970;SDS011;35425;51.142;17.178;2022-08-01T05:43:07;0.93;;;0.35;;
39970;SDS011;35425;51.142;17.178;2022-08-01T05:45:33;1.27;;;0.52;;
39970;SDS011;35425;51.142;17.178;2022-08-01T05:48:00;0.52;;;0.50;;
39970;SDS011;35425;51.142;17.178;2022-08-01T05:50:26;0.60;;;0.43;;
39970;SDS011;35425;51.142;17.178;2022-08-01T05:52:53;0.60;;;0.30;;
39970;SDS011;35425;51.142;17.178;2022-08-01T05:55:19;0.40;;;0.40;;
39970;SDS011;35425;51.142;17.178;2022-08-01T05:57:45;0.47;;;0.40;;
39970;SDS011;35425;51.142;17.178;2022-08-01T06:00:12;2.50;;;0.52;;
39970;SDS011;35425;51.142;17.178;2022-08-01T06:02:41;0.68;;;0.50;;
39970;SDS011;35425;51.142;17.178;2022-08-01T06:05:09;0.47;;;0.40;;
39970;SDS011;35425;51.142;17.178;2022-08-01T06:07:38;0.43;;;0.40;;
39970;SDS011;35425;51.142;17.178;2022-08-01T06:10:06;0.40;;;0.40;;
39970;SDS011;35425;51.142;17.178;2022-08-01T06:12:33;0.50;;;0.40;;
39970;SDS011;35425;51.142;17.178;2022-08-01T06:15:01;1.20;;;0.63;;
39970;SDS011;35425;51.142;17.178;2022-08-01T06:17:27;1.48;;;0.70;;
39970;SDS011;35425;51.142;17.178;2022-08-01T06:19:54;1.17;;;0.43;;
39970;SDS011;35425;51.142;17.178;2022-08-01T06:25:48;0.40;;;0.40;;
39970;SDS011;35425;51.142;17.178;2022-08-01T06:28:17;0.70;;;0.50;;
39970;SDS011;35425;51.142;17.178;2022-08-01T06:30:44;0.93;;;0.45;;
39970;SDS011;35425;51.142;17.178;2022-08-01T06:33:10;0.47;;;0.47;;
39970;SDS011;35425;51.142;17.178;2022-08-01T06:35:37;0.50;;;0.50;;
39970;SDS011;35425;51.142;17.178;2022-08-01T06:38:03;1.15;;;0.50;;
39970;SDS011;35425;51.142;17.178;2022-08-01T06:40:30;1.73;;;0.68;;
39970;SDS011;35425;51.142;17.178;2022-08-01T06:42:56;0.88;;;0.50;;
39970;SDS011;35425;51.142;17.178;2022-08-01T06:45:23;1.38;;;0.50;;
39970;SDS011;35425;51.142;17.178;2022-08-01T06:47:52;1.98;;;0.73;;
39970;SDS011;35425;51.142;17.178;2022-08-01T06:50:18;1.48;;;0.50;;
39970;SDS011;35425;51.142;17.178;2022-08-01T06:52:45;0.63;;;0.47;;
39970;SDS011;35425;51.142;17.178;2022-08-01T06:55:11;1.45;;;0.60;;
39970;SDS011;35425;51.142;17.178;2022-08-01T06:57:48;0.50;;;0.40;;
39970;SDS011;35425;51.142;17.178;2022-08-01T07:00:15;1.23;;;0.60;;
39970;SDS011;35425;51.142;17.178;2022-08-01T07:02:53;0.93;;;0.50;;
39970;SDS011;35425;51.142;17.178;2022-08-01T07:58:50;1.30;;;0.50;;
39970;SDS011;35425;51.142;17.178;2022-08-01T08:01:16;0.73;;;0.70;;
39970;SDS011;35425;51.142;17.178;2022-08-01T08:03:44;0.68;;;0.40;;
39970;SDS011;35425;51.142;17.178;2022-08-01T08:06:10;0.80;;;0.50;;
39970;SDS011;35425;51.142;17.178;2022-08-01T08:08:37;0.98;;;0.70;;
39970;SDS011;35425;51.142;17.178;2022-08-01T08:11:03;0.80;;;0.40;;
39970;SDS011;35425;51.142;17.178;2022-08-01T08:13:30;0.45;;;0.45;;
39970;SDS011;35425;51.142;17.178;2022-08-01T08:15:56;0.60;;;0.52;;
39970;SDS011;35425;51.142;17.178;2022-08-01T08:18:24;1.02;;;0.70;;
39970;SDS011;35425;51.142;17.178;2022-08-01T08:20:51;0.88;;;0.60;;
39970;SDS011;35425;51.142;17.178;2022-08-01T08:23:17;0.73;;;0.70;;
39970;SDS011;35425;51.142;17.178;2022-08-01T08:26:09;0.80;;;0.70;;
39970;SDS011;35425;51.142;17.178;2022-08-01T08:28:36;0.75;;;0.65;;
39970;SDS011;35425;51.142;17.178;2022-08-01T08:31:02;0.70;;;0.68;;
39970;SDS011;35425;51.142;17.178;2022-08-01T08:33:29;0.70;;;0.70;;
39970;SDS011;35425;51.142;17.178;2022-08-01T08:35:55;1.10;;;0.75;;
39970;SDS011;35425;51.142;17.178;2022-08-01T08:38:22;0.60;;;0.52;;
39970;SDS011;35425;51.142;17.178;2022-08-01T08:40:55;0.70;;;0.70;;
39970;SDS011;35425;51.142;17.178;2022-08-01T08:43:22;0.75;;;0.68;;
39970;SDS011;35425;51.142;17.178;2022-08-01T08:45:50;0.82;;;0.60;;
39970;SDS011;35425;51.142;17.178;2022-08-01T08:48:25;1.83;;;0.70;;
39970;SDS011;35425;51.142;17.178;2022-08-01T08:50:53;1.05;;;0.80;;
39970;SDS011;35425;51.142;17.178;2022-08-01T08:53:20;0.82;;;0.80;;
39970;SDS011;35425;51.142;17.178;2022-08-01T08:55:46;1.58;;;0.80;;
39970;SDS011;35425;51.142;17.178;2022-08-01T08:58:21;0.60;;;0.60;;
39970;SDS011;35425;51.142;17.178;2022-08-01T09:00:55;0.90;;;0.70;;
39970;SDS011;35425;51.142;17.178;2022-08-01T09:03:22;1.25;;;0.80;;
39970;SDS011;35425;51.142;17.178;2022-08-01T09:05:49;1.00;;;0.60;;
39970;SDS011;35425;51.142;17.178;2022-08-01T09:08:15;0.80;;;0.80;;
39970;SDS011;35425;51.142;17.178;2022-08-01T09:10:42;0.70;;;0.70;;
39970;SDS011;35425;51.142;17.178;2022-08-01T09:13:13;0.95;;;0.68;;
39970;SDS011;35425;51.142;17.178;2022-08-01T09:18:06;0.75;;;0.70;;
39970;SDS011;35425;51.142;17.178;2022-08-01T09:20:33;0.95;;;0.80;;
39970;SDS011;35425;51.142;17.178;2022-08-01T09:23:02;0.80;;;0.70;;
39970;SDS011;35425;51.142;17.178;2022-08-01T09:25:30;0.80;;;0.80;;
39970;SDS011;35425;51.142;17.178;2022-08-01T09:28:13;1.15;;;0.82;;
39970;SDS011;35425;51.142;17.178;2022-08-01T09:30:41;0.88;;;0.82;;
39970;SDS011;35425;51.142;17.178;2022-08-01T09:33:08;0.60;;;0.60;;
39970;SDS011;35425;51.142;17.178;2022-08-01T09:35:53;0.80;;;0.80;;
39970;SDS011;35425;51.142;17.178;2022-08-01T09:38:21;0.70;;;0.70;;
39970;SDS011;35425;51.142;17.178;2022-08-01T09:40:49;0.70;;;0.70;;
39970;SDS011;35425;51.142;17.178;2022-08-01T09:43:16;0.70;;;0.70;;
39970;SDS011;35425;51.142;17.178;2022-08-01T09:45:44;1.25;;;0.80;;
39970;SDS011;35425;51.142;17.178;2022-08-01T09:48:16;0.68;;;0.68;;
39970;SDS011;35425;51.142;17.178;2022-08-01T09:50:43;0.80;;;0.70;;
39970;SDS011;35425;51.142;17.178;2022-08-01T09:53:10;0.52;;;0.52;;
39970;SDS011;35425;51.142;17.178;2022-08-01T09:55:55;0.70;;;0.70;;
39970;SDS011;35425;51.142;17.178;2022-08-01T09:58:46;0.77;;;0.77;;
39970;SDS011;35425;51.142;17.178;2022-08-01T10:01:14;0.80;;;0.80;;
39970;SDS011;35425;51.142;17.178;2022-08-01T10:03:41;0.70;;;0.70;;
39970;SDS011;35425;51.142;17.178;2022-08-01T10:06:20;0.65;;;0.65;;
39970;SDS011;35425;51.142;17.178;2022-08-01T10:08:50;1.02;;;0.93;;
39970;SDS011;35425;51.142;17.178;2022-08-01T10:11:17;1.23;;;0.75;;
39970;SDS011;35425;51.142;17.178;2022-08-01T10:14:01;0.90;;;0.80;;
39970;SDS011;35425;51.142;17.178;2022-08-01T10:16:28;0.90;;;0.90;;
39970;SDS011;35425;51.142;17.178;2022-08-01T10:18:55;0.77;;;0.73;;
39970;SDS011;35425;51.142;17.178;2022-08-01T10:21:23;0.90;;;0.90;;
39970;SDS011;35425;51.142;17.178;2022-08-01T10:24:12;1.25;;;0.80;;
39970;SDS011;35425;51.142;17.178;2022-08-01T10:29:10;0.77;;;0.77;;
39970;SDS011;35425;51.142;17.178;2022-08-01T10:31:57;1.15;;;1.00;;
39970;SDS011;35425;51.142;17.178;2022-08-01T10:34:30;0.90;;;0.80;;
39970;SDS011;35425;51.142;17.178;2022-08-01T10:36:57;0.80;;;0.80;;
39970;SDS011;35425;51.142;17.178;2022-08-01T10:39:25;0.73;;;0.68;;
39970;SDS011;35425;51.142;17.178;2022-08-01T10:41:56;0.80;;;0.80;;
39970;SDS011;35425;51.142;17.178;2022-08-01T10:44:24;0.90;;;0.70;;
39970;SDS011;35425;51.142;17.178;2022-08-01T10:46:52;0.63;;;0.63;;
39970;SDS011;35425;51.142;17.178;2022-08-01T10:49:21;0.70;;;0.70;;
39970;SDS011;35425;51.142;17.178;2022-08-01T10:51:48;1.13;;;0.70;;
39970;SDS011;35425;51.142;17.178;2022-08-01T10:54:19;0.77;;;0.70;;
39970;SDS011;35425;51.142;17.178;2022-08-01T10:56:50;0.80;;;0.80;;
39970;SDS011;35425;51.142;17.178;2022-08-01T10:59:27;0.80;;;0.80;;
39970;SDS011;35425;51.142;17.178;2022-08-01T11:02:25;1.02;;;0.93;;
39970;SDS011;35425;51.142;17.178;2022-08-01T11:04:58;0.95;;;0.95;;
39970;SDS011;35425;51.142;17.178;2022-08-01T11:10:03;0.68;;;0.68;;
39970;SDS011;35425;51.142;17.178;2022-08-01T11:12:40;0.85;;;0.85;;
39970;SDS011;35425;51.142;17.178;2022-08-01T11:17:37;0.60;;;0.60;;
39970;SDS011;35425;51.142;17.178;2022-08-01T11:25:24;0.60;;;0.60;;
39970;SDS011;35425;51.142;17.178;2022-08-01T11:30:45;0.60;;;0.60;;
39970;SDS011;35425;51.142;17.178;2022-08-01T11:33:13;0.60;;;0.60;;
39970;SDS011;35425;51.142;17.178;2022-08-01T11:38:26;0.80;;;0.70;;
39970;SDS011;35425;51.142;17.178;2022-08-01T11:51:58;0.52;;;0.52;;
39970;SDS011;35425;51.142;17.178;2022-08-01T11:54:26;0.93;;;0.70;;
39970;SDS011;35425;51.142;17.178;2022-08-01T11:57:11;0.73;;;0.73;;
39970;SDS011;35425;51.142;17.178;2022-08-01T11:59:42;0.60;;;0.60;;
39970;SDS011;35425;51.142;17.178;2022-08-01T12:02:31;0.80;;;0.80;;
39970;SDS011;35425;51.142;17.178;2022-08-01T12:05:02;0.60;;;0.60;;
39970;SDS011;35425;51.142;17.178;2022-08-01T12:07:31;0.60;;;0.60;;
39970;SDS011;35425;51.142;17.178;2022-08-01T12:10:03;0.77;;;0.77;;
39970;SDS011;35425;51.142;17.178;2022-08-01T12:12:30;0.70;;;0.70;;
39970;SDS011;35425;51.142;17.178;2022-08-01T12:14:58;0.70;;;0.70;;
39970;SDS011;35425;51.142;17.178;2022-08-01T12:17:35;0.43;;;0.43;;
39970;SDS011;35425;51.142;17.178;2022-08-01T12:20:06;0.80;;;0.60;;
39970;SDS011;35425;51.142;17.178;2022-08-01T12:22:33;0.68;;;0.65;;
39970;SDS011;35425;51.142;17.178;2022-08-01T12:25:12;0.45;;;0.45;;
39970;SDS011;35425;51.142;17.178;2022-08-01T12:27:40;0.60;;;0.60;;
39970;SDS011;35425;51.142;17.178;2022-08-01T12:30:11;0.55;;;0.55;;
39970;SDS011;35425;51.142;17.178;2022-08-01T12:32:38;0.60;;;0.60;;
39970;SDS011;35425;51.142;17.178;2022-08-01T12:35:10;0.95;;;0.63;;
39970;SDS011;35425;51.142;17.178;2022-08-01T12:37:47;0.57;;;0.57;;
39970;SDS011;35425;51.142;17.178;2022-08-01T12:40:20;0.63;;;0.60;;
39970;SDS011;35425;51.142;17.178;2022-08-01T12:42:51;0.63;;;0.60;;
39970;SDS011;35425;51.142;17.178;2022-08-01T12:45:18;0.60;;;0.60;;
39970;SDS011;35425;51.142;17.178;2022-08-01T12:47:46;0.70;;;0.70;;
39970;SDS011;35425;51.142;17.178;2022-08-01T12:50:14;0.50;;;0.50;;
39970;SDS011;35425;51.142;17.178;2022-08-01T12:52:41;0.75;;;0.75;;
39970;SDS011;35425;51.142;17.178;2022-08-01T12:55:09;0.73;;;0.73;;
39970;SDS011;35425;51.142;17.178;2022-08-01T12:57:40;0.70;;;0.68;;
39970;SDS011;35425;51.142;17.178;2022-08-01T13:00:18;0.60;;;0.60;;
39970;SDS011;35425;51.142;17.178;2022-08-01T13:02:46;0.70;;;0.63;;
39970;SDS011;35425;51.142;17.178;2022-08-01T13:05:14;0.60;;;0.60;;
39970;SDS011;35425;51.142;17.178;2022-08-01T13:10:11;0.50;;;0.50;;
39970;SDS011;35425;51.142;17.178;2022-08-01T13:12:39;0.50;;;0.50;;
39970;SDS011;35425;51.142;17.178;2022-08-01T13:17:44;0.50;;;0.50;;
39970;SDS011;35425;51.142;17.178;2022-08-01T13:20:20;0.60;;;0.60;;
39970;SDS011;35425;51.142;17.178;2022-08-01T13:22:47;0.50;;;0.50;;
39970;SDS011;35425;51.142;17.178;2022-08-01T13:25:14;0.50;;;0.50;;
39970;SDS011;35425;51.142;17.178;2022-08-01T13:27:47;1.10;;;0.50;;
39970;SDS011;35425;51.142;17.178;2022-08-01T13:32:58;0.50;;;0.50;;
39970;SDS011;35425;51.142;17.178;2022-08-01T13:35:25;0.70;;;0.60;;
39970;SDS011;35425;51.142;17.178;2022-08-01T13:37:51;0.57;;;0.57;;
39970;SDS011;35425;51.142;17.178;2022-08-01T13:40:25;0.60;;;0.60;;
39970;SDS011;35425;51.142;17.178;2022-08-01T13:42:53;0.65;;;0.65;;
39970;SDS011;35425;51.142;17.178;2022-08-01T13:45:22;0.70;;;0.70;;
39970;SDS011;35425;51.142;17.178;2022-08-01T13:47:51;0.63;;;0.50;;
39970;SDS011;35425;51.142;17.178;2022-08-01T13:50:38;0.60;;;0.60;;
39970;SDS011;35425;51.142;17.178;2022-08-01T13:53:04;1.15;;;0.70;;
39970;SDS011;35425;51.142;17.178;2022-08-01T13:55:31;0.70;;;0.70;;
39970;SDS011;35425;51.142;17.178;2022-08-01T13:58:00;0.68;;;0.68;;
39970;SDS011;35425;51.142;17.178;2022-08-01T14:00:27;0.77;;;0.77;;
39970;SDS011;35425;51.142;17.178;2022-08-01T14:02:53;0.75;;;0.75;;
39970;SDS011;35425;51.142;17.178;2022-08-01T14:05:23;0.50;;;0.50;;
39970;SDS011;35425;51.142;17.178;2022-08-01T14:07:50;0.85;;;0.60;;
39970;SDS011;35425;51.142;17.178;2022-08-01T14:12:48;0.80;;;0.80;;
39970;SDS011;35425;51.142;17.178;2022-08-01T14:15:16;0.70;;;0.70;;
39970;SDS011;35425;51.142;17.178;2022-08-01T14:18:03;0.73;;;0.73;;
39970;SDS011;35425;51.142;17.178;2022-08-01T14:20:31;0.75;;;0.75;;
39970;SDS011;35425;51.142;17.178;2022-08-01T14:22:58;0.80;;;0.80;;
39970;SDS011;35425;51.142;17.178;2022-08-01T14:25:25;0.70;;;0.70;;
39970;SDS011;35425;51.142;17.178;2022-08-01T14:28:12;0.80;;;0.80;;
39970;SDS011;35425;51.142;17.178;2022-08-01T14:30:38;0.80;;;0.80;;
39970;SDS011;35425;51.142;17.178;2022-08-01T14:33:07;0.80;;;0.80;;
39970;SDS011;35425;51.142;17.178;2022-08-01T14:35:34;0.68;;;0.68;;
39970;SDS011;35425;51.142;17.178;2022-08-01T14:38:21;0.70;;;0.70;;
39970;SDS011;35425;51.142;17.178;2022-08-01T14:40:57;0.85;;;0.65;;
39970;SDS011;35425;51.142;17.178;2022-08-01T14:43:24;0.65;;;0.60;;
39970;SDS011;35425;51.142;17.178;2022-08-01T14:45:58;0.77;;;0.70;;
39970;SDS011;35425;51.142;17.178;2022-08-01T14:48:25;0.70;;;0.70;;
39970;SDS011;35425;51.142;17.178;2022-08-01T14:50:51;0.73;;;0.73;;
39970;SDS011;35425;51.142;17.178;2022-08-01T14:53:18;0.68;;;0.68;;
39970;SDS011;35425;51.142;17.178;2022-08-01T14:55:45;0.65;;;0.65;;
39970;SDS011;35425;51.142;17.178;2022-08-01T14:58:12;0.50;;;0.50;;
39970;SDS011;35425;51.142;17.178;2022-08-01T15:00:39;0.50;;;0.50;;
39970;SDS011;35425;51.142;17.178;2022-08-01T15:03:06;0.60;;;0.60;;
39970;SDS011;35425;51.142;17.178;2022-08-01T15:05:32;0.80;;;0.80;;
39970;SDS011;35425;51.142;17.178;2022-08-01T15:07:59;0.60;;;0.60;;
39970;SDS011;35425;51.142;17.178;2022-08-01T15:10:26;0.65;;;0.65;;
39970;SDS011;35425;51.142;17.178;2022-08-01T15:12:53;0.50;;;0.50;;
39970;SDS011;35425;51.142;17.178;2022-08-01T15:15:19;0.60;;;0.60;;
39970;SDS011;35425;51.142;17.178;2022-08-01T15:17:46;0.60;;;0.50;;
39970;SDS011;35425;51.142;17.178;2022-08-01T15:20:12;0.55;;;0.55;;
39970;SDS011;35425;51.142;17.178;2022-08-01T15:22:40;0.85;;;0.85;;
39970;SDS011;35425;51.142;17.178;2022-08-01T15:25:06;0.60;;;0.60;;
39970;SDS011;35425;51.142;17.178;2022-08-01T15:27:33;0.55;;;0.55;;
39970;SDS011;35425;51.142;17.178;2022-08-01T15:29:59;0.63;;;0.63;;
39970;SDS011;35425;51.142;17.178;2022-08-01T15:32:26;0.65;;;0.50;;
39970;SDS011;35425;51.142;17.178;2022-08-01T15:34:53;0.63;;;0.60;;
39970;SDS011;35425;51.142;17.178;2022-08-01T15:37:19;0.40;;;0.40;;
39970;SDS011;35425;51.142;17.178;2022-08-01T15:39:47;1.02;;;0.57;;
39970;SDS011;35425;51.142;17.178;2022-08-01T15:42:15;0.60;;;0.60;;
39970;SDS011;35425;51.142;17.178;2022-08-01T15:44:52;0.50;;;0.50;;
39970;SDS011;35425;51.142;17.178;2022-08-01T15:47:20;0.60;;;0.60;;
39970;SDS011;35425;51.142;17.178;2022-08-01T15:49:53;0.50;;;0.50;;
39970;SDS011;35425;51.142;17.178;2022-08-01T15:54:48;0.57;;;0.57;;
39970;SDS011;35425;51.142;17.178;2022-08-01T15:57:15;0.60;;;0.60;;
39970;SDS011;35425;51.142;17.178;2022-08-01T15:59:42;0.60;;;0.60;;
39970;SDS011;35425;51.142;17.178;2022-08-01T16:02:08;1.20;;;0.40;;
39970;SDS011;35425;51.142;17.178;2022-08-01T16:04:37;0.50;;;0.50;;
39970;SDS011;35425;51.142;17.178;2022-08-01T16:07:04;0.45;;;0.45;;
39970;SDS011;35425;51.142;17.178;2022-08-01T16:09:31;0.57;;;0.57;;
39970;SDS011;35425;51.142;17.178;2022-08-01T16:11:58;0.60;;;0.60;;
39970;SDS011;35425;51.142;17.178;2022-08-01T16:14:24;0.60;;;0.52;;
39970;SDS011;35425;51.142;17.178;2022-08-01T16:16:51;0.63;;;0.60;;
39970;SDS011;35425;51.142;17.178;2022-08-01T16:19:20;0.60;;;0.60;;
39970;SDS011;35425;51.142;17.178;2022-08-01T16:21:47;0.40;;;0.40;;
39970;SDS011;35425;51.142;17.178;2022-08-01T16:24:14;0.75;;;0.50;;
39970;SDS011;35425;51.142;17.178;2022-08-01T16:26:41;1.00;;;0.40;;
39970;SDS011;35425;51.142;17.178;2022-08-01T16:29:09;0.30;;;0.30;;
39970;SDS011;35425;51.142;17.178;2022-08-01T16:31:35;0.40;;;0.40;;
39970;SDS011;35425;51.142;17.178;2022-08-01T16:34:22;0.40;;;0.40;;
39970;SDS011;35425;51.142;17.178;2022-08-01T16:36:49;0.50;;;0.50;;
39970;SDS011;35425;51.142;17.178;2022-08-01T16:39:28;0.40;;;0.40;;
39970;SDS011;35425;51.142;17.178;2022-08-01T16:42:00;0.30;;;0.30;;